Latest Coastal Weather Observations for Smithton

IDV60701

Issued at 5:11 am EST Sunday 24 July 2016 (issued every 10 minutes, with the page automatically refreshed every 10 minutes)

About coastal observations | Map of coastal stations | Coastal observations for VIC | Marine services | Other Formats
Station Details ID: 091292 Name: SMITHTON AERODROME Lat: -40.83 Lon: 145.08 Height: 7.5 m
Data from the previous 72 hours. | See also: Recent months at Smithton
Date/Time
EST
Temp
°C
Wind Pressure Rain since
9am
mm
Weather Cloud Vis
km
Sea
Height
m
Swell
Dir  Spd
kts
Gust
kts
hPa Trend Height
m
Period
s
Dir
24/05:00am 1.5 NW 1 3 1007.4 - 2.6 - - - - - - -
24/04:30am 0.8 S 3 5 1007.4 - 2.4 - - - - - - -
24/04:00am 2.4 S 6 8 1007.3 - 2.4 - - - - - - -
24/03:30am 1.1 SW 5 7 1007.5 - 2.4 - - - - - - -
24/03:00am 0.8 SSW 1 3 1007.6 - 2.4 - - - - - - -
24/02:30am 1.4 SSW 3 4 1008.1 - 2.4 - - - - - - -
24/02:00am 2.3 SSW 2 4 1007.9 - 2.4 - - - - - - -
24/01:30am 2.2 W 5 6 1008.0 - 2.4 - - - - - - -
24/01:00am 4.2 W 7 8 1008.0 - 2.4 - - - - - - -
24/12:30am 3.9 NW 8 12 1008.1 - 2.4 - - - - - - -
24/12:00am 1.4 WNW 3 4 1008.1 - 2.4 - - - - - - -
 
Date/Time
EST
Temp
°C
Wind Pressure Rain since
9am
mm
Weather Cloud Vis
km
Sea
Height
m
Swell
Dir  Spd
kts
Gust
kts
hPa Trend Height
m
Period
s
Dir
23/11:30pm 2.0 WNW 4 5 1008.4 - 2.4 - - - - - - -
23/11:00pm 1.3 SSW 7 8 1008.2 - 2.4 - - - - - - -
23/10:30pm 1.1 W 7 8 1008.1 - 2.4 - - - - - - -
23/10:00pm 1.5 SW 3 4 1007.8 - 2.4 - - - - - - -
23/09:30pm 2.5 WSW 6 9 1007.5 - 2.4 - - - - - - -
23/09:00pm 2.1 WNW 7 8 1007.4 - 2.4 - - - - - - -
23/08:30pm 2.0 WNW 6 6 1006.9 - 2.4 - - - - - - -
23/08:00pm 3.7 S 5 6 1006.4 - 2.4 - - - - - - -
23/07:30pm 3.4 W 5 7 1005.7 - 2.4 - - - - - - -
23/07:00pm 4.3 SW 6 10 1005.3 - 2.4 - - - - - - -
23/06:30pm 5.8 WSW 14 23 1004.5 - 2.4 - - - - - - -
23/06:00pm 5.3 SW 12 19 1003.9 - 2.4 - - - - - - -
23/05:30pm 5.7 WSW 16 21 1003.3 - 2.4 - - - - - - -
23/05:00pm 6.1 SW 21 32 1002.8 - 2.4 - - - - - - -
23/04:30pm 6.3 SW 18 29 1001.9 - 2.4 - - - - - - -
23/04:26pm 6.5 SW 21 31 1001.9 - 2.4 - - - - - - -
23/04:00pm 7.5 SW 21 29 1000.9 - 2.4 - - - - - - -
23/03:30pm 6.5 SW 25 37 1000.0 - 2.4 - - - - - - -
23/03:00pm 6.2 WSW 30 43 999.1 - 2.2 - - - - - - -
23/02:30pm 6.8 WSW 28 40 997.6 - 1.6 - - - - - - -
23/02:22pm 7.7 WSW 27 48 997.3 - 1.2 - - - - - - -
23/02:19pm 7.3 WSW 26 48 997.5 - 1.2 - - - - - - -
23/02:14pm 7.5 WSW 38 48 997.2 - 1.2 - - - - - - -
23/02:00pm 7.8 W 28 42 997.1 - 1.2 - - - - - - -
23/01:50pm 7.7 WSW 24 45 997.2 - 1.2 - - - - - - -
23/01:49pm 7.7 WSW 25 45 997.3 - 1.2 - - - - - - -
23/01:39pm 8.0 WSW 38 48 997.3 - 1.2 - - - - - - -
23/01:38pm 7.9 WSW 40 48 997.1 - 1.2 - - - - - - -
23/01:34pm 8.4 W 26 39 997.0 - 1.2 - - - - - - -
23/01:30pm 8.3 W 28 35 997.0 - 1.2 - - - - - - -
23/01:29pm 8.1 W 31 35 996.9 - 1.2 - - - - - - -
23/01:13pm 7.6 W 19 29 996.9 - 1.2 - - - - - - -
23/01:00pm 6.6 W 21 29 997.2 - 1.0 - - - - - - -
23/12:34pm 7.2 WSW 19 30 997.0 - 0.8 - - - - - - -
23/12:30pm 6.7 WSW 18 24 997.1 - 0.8 - - - - - - -
23/12:00pm 5.3 WSW 22 40 997.6 - 0.2 - - - - - - -
23/11:55am 6.1 WSW 22 46 997.6 - 0.0 - - - - - - -
23/11:48am 6.0 W 27 50 997.3 - 0.0 - - - - - - -
23/11:45am 5.7 SW 39 50 997.7 - 0.0 - - - - - - -
23/11:44am 6.4 WSW 24 45 997.4 - 0.0 - - - - - - -
23/11:30am 6.9 WSW 23 33 997.3 - 0.0 - - - - - - -
23/11:20am 6.3 WSW 28 39 997.4 - 0.0 - - - - - - -
23/11:18am 6.3 WSW 32 39 997.2 - 0.0 - - - - - - -
23/11:12am 7.5 WSW 21 32 997.0 - 0.0 - - - - - - -
23/11:00am 7.4 WSW 21 28 996.7 - 0.0 - - - - - - -
23/10:39am 7.9 WSW 25 35 996.4 - 0.0 - - - - - - -
23/10:30am 7.7 WSW 25 34 996.3 - 0.0 - - - - - - -
23/10:00am 7.4 WSW 24 36 995.8 - 0.0 - - - - - - -
23/09:32am 7.0 WSW 24 34 995.3 - 0.0 - - - - - - -
23/09:30am 6.9 WSW 25 34 995.3 - 0.0 - - - - - - -
23/09:13am 6.4 WSW 19 31 995.0 - 0.0 - - - - - - -
23/09:00am 5.8 WSW 17 23 994.9 - 5.4 - - - - - - -
23/08:43am 4.2 WSW 15 25 994.7 - 5.4 - - - - - - -
23/08:30am 3.9 WSW 16 22 994.6 - 5.4 - - - - - - -
23/08:11am 3.3 WSW 22 40 994.3 - 5.4 - - - - - - -
23/08:03am 3.4 WSW 33 44 994.9 - 5.4 - - - - - - -
23/08:00am 3.9 WSW 35 44 994.3 - 5.0 - - - - - - -
23/07:59am 4.2 WSW 35 44 994.4 - 5.0 - - - - - - -
23/07:57am 5.4 WSW 23 34 994.1 - 4.6 - - - - - - -
23/07:30am 5.6 WSW 19 28 993.2 - 4.6 - - - - - - -
23/07:10am 5.4 WSW 18 29 993.1 - 4.6 - - - - - - -
23/07:00am 5.1 W 19 27 992.9 - 4.6 - - - - - - -
23/06:49am 5.3 WSW 16 40 992.7 - 4.6 - - - - - - -
23/06:44am 5.6 WSW 30 40 992.7 - 4.6 - - - - - - -
23/06:43am 5.7 WSW 31 40 992.6 - 4.6 - - - - - - -
23/06:41am 5.5 WSW 19 31 992.3 - 4.6 - - - - - - -
23/06:30am 5.2 WSW 17 23 992.0 - 4.6 - - - - - - -
23/06:00am 4.5 WSW 18 30 991.6 - 4.6 - - - - - - -
23/05:48am 4.6 WSW 29 39 991.3 - 4.6 - - - - - - -
23/05:46am 4.8 SW 33 39 991.6 - 4.6 - - - - - - -
23/05:32am 5.2 WSW 20 30 990.9 - 4.4 - - - - - - -
23/05:30am 5.3 WSW 21 30 990.7 - 4.4 - - - - - - -
23/05:00am 6.0 WSW 19 29 990.5 - 4.2 - - - - - - -
23/04:30am 5.8 WSW 21 29 989.8 - 4.2 - - - - - - -
23/04:10am 5.8 WSW 16 27 989.6 - 3.8 - - - - - - -
23/04:00am 5.9 SW 14 20 989.2 - 3.6 - - - - - - -
23/03:30am 6.0 WSW 17 24 989.4 - 2.8 - - - - - - -
23/03:00am 6.2 W 13 18 988.9 - 1.8 - - - - - - -
23/02:39am 6.4 WSW 19 33 989.1 - 1.4 - - - - - - -
23/02:30am 6.6 WSW 18 22 989.0 - 1.2 - - - - - - -
23/02:00am 7.0 W 14 25 988.5 - 1.0 - - - - - - -
23/01:30am 6.7 WSW 5 6 988.5 - 0.6 - - - - - - -
23/01:00am 7.1 WSW 9 13 988.6 - 0.6 - - - - - - -
23/12:30am 7.3 WSW 11 14 988.9 - 0.6 - - - - - - -
23/12:00am 6.2 CALM 0 0 989.2 - 0.6 - - - - - - -
 
Date/Time
EST
Temp
°C
Wind Pressure Rain since
9am
mm
Weather Cloud Vis
km
Sea
Height
m
Swell
Dir  Spd
kts
Gust
kts
hPa Trend Height
m
Period
s
Dir
22/11:30pm 6.4 NW 3 4 989.4 - 0.6 - - - - - - -
22/11:00pm 6.8 NW 1 3 989.4 - 0.6 - - - - - - -
22/10:30pm 6.8 NW 4 5 989.8 - 0.6 - - - - - - -
22/10:00pm 6.9 CALM 0 0 989.8 - 0.6 - - - - - - -
22/09:30pm 7.5 W 5 6 989.9 - 0.6 - - - - - - -
22/09:00pm 7.4 WNW 9 11 990.3 - 0.6 - - - - - - -
22/08:30pm 6.6 W 4 7 990.5 - 0.6 - - - - - - -
22/08:00pm 7.8 WSW 8 10 990.5 - 0.6 - - - - - - -
22/07:30pm 7.8 W 9 13 990.3 - 0.6 - - - - - - -
22/07:00pm 8.0 WSW 10 13 990.0 - 0.6 - - - - - - -
22/06:30pm 8.8 W 14 20 990.0 - 0.6 - - - - - - -
22/06:00pm 9.0 WSW 14 19 989.7 - 0.6 - - - - - - -
22/05:40pm 9.4 WSW 18 29 989.4 - 0.6 - - - - - - -
22/05:30pm 9.5 W 19 27 989.2 - 0.6 - - - - - - -
22/05:00pm 10.2 W 19 27 989.0 - 0.6 - - - - - - -
22/04:36pm 10.7 W 23 35 988.5 - 0.6 - - - - - - -
22/04:30pm 10.7 W 22 29 988.7 - 0.6 - - - - - - -
22/04:00pm 11.1 WSW 22 33 988.6 - 0.6 - - - - - - -
22/03:30pm 11.0 W 26 37 988.2 - 0.6 - - - - - - -
22/03:00pm 12.1 W 26 36 987.6 - 0.6 - - - - - - -
22/02:30pm 12.4 W 23 36 987.1 - 0.4 - - - - - - -
22/02:00pm 12.9 W 25 35 986.7 - 0.4 - - - - - - -
22/01:47pm 12.6 W 24 37 986.7 - 0.4 - - - - - - -
22/01:30pm 12.7 W 25 34 986.8 - 0.4 - - - - - - -
22/01:00pm 12.2 W 22 31 986.7 - 0.4 - - - - - - -
22/12:39pm 12.2 W 18 28 986.6 - 0.2 - - - - - - -
22/12:30pm 12.1 WNW 19 25 986.5 - 0.2 - - - - - - -
22/12:27pm 12.2 WNW 20 30 986.5 - 0.2 - - - - - - -
22/12:00pm 12.0 WNW 22 30 986.9 - 0.2 - - - - - - -
22/11:45am 11.8 WNW 21 34 987.2 - 0.2 - - - - - - -
22/11:30am 12.9 WNW 33 46 987.1 - 0.2 - - - - - - -
22/11:28am 12.9 WNW 34 46 987.5 - 0.2 - - - - - - -
22/11:27am 13.2 WNW 22 46 987.1 - 0.2 - - - - - - -
22/11:23am 14.0 WNW 21 31 987.2 - 0.0 - - - - - - -
22/11:00am 13.3 NW 22 31 987.9 - 0.0 - - - - - - -
22/10:49am 13.1 NW 23 30 988.0 - 0.0 - - - - - - -
22/10:36am 13.6 NNW 18 29 987.9 - 0.0 - - - - - - -
22/10:30am 13.7 NNW 14 19 988.0 - 0.0 - - - - - - -
22/10:00am 13.8 NW 12 17 988.7 - 0.0 - - - - - - -
22/09:30am 13.9 NW 11 16 989.5 - 0.0 - - - - - - -
22/09:00am 13.0 WNW 13 19 990.2 - 12.0 - - - - - - -
22/08:30am 12.8 WNW 18 23 990.8 - 12.0 - - - - - - -
22/08:00am 12.8 WNW 17 22 990.9 - 11.8 - - - - - - -
22/07:30am 13.2 WNW 16 22 990.8 - 11.8 - - - - - - -
22/07:00am 13.3 WNW 18 24 990.7 - 11.8 - - - - - - -
22/06:30am 13.8 WNW 20 27 990.8 - 11.8 - - - - - - -
22/06:00am 14.1 NW 21 27 991.3 - 11.8 - - - - - - -
22/05:30am 14.3 NW 19 29 991.5 - 11.8 - - - - - - -
22/05:21am 14.3 NW 19 29 991.6 - 11.8 - - - - - - -
22/05:00am 14.3 NW 18 27 992.1 - 11.8 - - - - - - -
22/04:30am 13.8 NNW 21 29 992.6 - 11.6 - - - - - - -
22/04:00am 13.9 NNW 21 32 992.7 - 11.6 - - - - - - -
22/03:30am 13.8 NNW 22 33 993.8 - 10.6 - - - - - - -
22/03:03am 13.8 NNW 22 32 994.8 - 10.2 - - - - - - -
22/03:00am 13.8 NNW 22 29 994.9 - 10.2 - - - - - - -
22/02:30am 13.8 NNW 21 27 995.5 - 9.6 - - - - - - -
22/02:03am 13.5 N 19 29 996.3 - 9.2 - - - - - - -
22/02:00am 13.6 N 19 28 996.2 - 9.2 - - - - - - -
22/01:31am 13.8 N 19 29 995.6 - 7.0 - - - - - - -
22/01:30am 13.8 N 18 26 995.7 - 7.0 - - - - - - -
22/01:00am 13.4 N 17 22 996.7 - 7.0 - - - - - - -
22/12:30am 13.3 N 17 25 997.9 - 7.0 - - - - - - -
22/12:21am 13.2 N 15 25 998.1 - 7.0 - - - - - - -
22/12:00am 12.9 N 17 23 999.4 - 7.0 - - - - - - -
 
Date/Time
EST
Temp
°C
Wind Pressure Rain since
9am
mm
Weather Cloud Vis
km
Sea
Height
m
Swell
Dir  Spd
kts
Gust
kts
hPa Trend Height
m
Period
s
Dir
21/11:30pm 12.7 NNE 13 18 999.8 - 5.8 - - - - - - -
21/11:00pm 12.7 N 11 15 1001.5 - 5.4 - - - - - - -
21/10:30pm 12.7 N 10 12 1002.9 - 4.6 - - - - - - -
21/10:00pm 12.1 NE 8 9 1003.6 - 3.0 - - - - - - -
21/09:30pm 12.2 NE 6 9 1004.4 - 3.0 - - - - - - -
21/09:00pm 12.0 NNE 7 9 1005.2 - 3.0 - - - - - - -
21/08:30pm 12.2 N 10 11 1005.1 - 3.0 - - - - - - -
21/08:00pm 12.0 N 10 14 1005.7 - 3.0 - - - - - - -
21/07:30pm 10.6 NNE 4 6 1005.9 - 3.0 - - - - - - -
21/07:00pm 10.4 NE 5 6 1006.4 - 3.0 - - - - - - -
21/06:30pm 11.5 NE 5 7 1006.9 - 3.0 - - - - - - -
21/06:00pm 11.3 NE 7 9 1007.2 - 3.0 - - - - - - -
21/05:30pm 11.1 ENE 7 9 1007.7 - 3.0 - - - - - - -
21/05:00pm 10.7 ENE 7 8 1008.3 - 2.8 - - - - - - -
21/04:30pm 10.4 ENE 8 11 1008.7 - 2.6 - - - - - - -
21/04:00pm 10.2 E 8 10 1009.0 - 2.4 - - - - - - -
21/03:30pm 10.1 ENE 7 9 1009.3 - 2.4 - - - - - - -
21/03:00pm 10.3 NE 8 10 1009.6 - 2.4 - - - - - - -
21/02:30pm 10.6 ENE 5 7 1010.2 - 2.4 - - - - - - -
21/02:00pm 10.3 N 6 8 1010.7 - 2.4 - - - - - - -
21/01:30pm 10.2 NNE 10 15 1011.3 - 1.8 - - - - - - -
21/01:00pm 10.9 NE 8 11 1012.0 - 1.0 - - - - - - -
21/12:30pm 11.1 NE 10 13 1012.5 - 0.2 - - - - - - -
21/12:00pm 11.4 NE 10 14 1013.3 - 0.0 - - - - - - -
21/11:30am 11.6 NNE 11 15 1014.1 - 0.0 - - - - - - -
21/11:00am 11.8 NNE 13 16 1014.6 - 0.0 - - - - - - -
21/10:30am 10.8 NE 7 8 1015.4 - 0.0 - - - - - - -
21/10:00am 10.4 ENE 8 10 1015.5 - 0.0 - - - - - - -
21/09:30am 9.7 S 4 6 1015.0 - 0.0 - - - - - - -
21/09:00am 7.3 SSW 4 6 1015.5 - 0.0 - - - - - - -
21/08:30am 3.7 SSW 3 4 1016.2 - 0.0 - - - - - - -
21/08:00am 2.5 SSW 5 5 1016.5 - 0.0 - - - - - - -
21/07:30am 3.0 CALM 0 0 1016.6 - 0.0 - - - - - - -
21/07:00am 3.9 SSW 3 5 1017.0 - 0.0 - - - - - - -
21/06:30am 4.0 SSW 2 4 1017.2 - 0.0 - - - - - - -
21/06:00am 3.5 SSW 4 5 1017.3 - 0.0 - - - - - - -
21/05:30am 3.7 CALM 0 0 1017.4 - 0.0 - - - - - - -

Other Formats:

Comma delimited format used in spreadsheet applications
http://www.bom.gov.au/fwo/IDV60701/IDV60701.94953.axf

JavaScript Object Notation format (JSON) in row-major order
http://www.bom.gov.au/fwo/IDV60701/IDV60701.94953.json